sensor_id;sensor_type;location;lat;lon;timestamp;P1;durP1;ratioP1;P2;durP2;ratioP2
19179;SDS011;9722;48.754;8.868;2023-04-24T00:00:29;0.70;;;0.60;;
19179;SDS011;9722;48.754;8.868;2023-04-24T00:03:51;1.30;;;0.60;;
19179;SDS011;9722;48.754;8.868;2023-04-24T00:07:11;0.97;;;0.40;;
19179;SDS011;9722;48.754;8.868;2023-04-24T00:10:32;6.33;;;0.40;;
19179;SDS011;9722;48.754;8.868;2023-04-24T00:13:53;0.53;;;0.50;;
19179;SDS011;9722;48.754;8.868;2023-04-24T00:17:14;1.03;;;0.50;;
19179;SDS011;9722;48.754;8.868;2023-04-24T00:20:34;0.47;;;0.47;;
19179;SDS011;9722;48.754;8.868;2023-04-24T00:23:57;0.30;;;0.30;;
19179;SDS011;9722;48.754;8.868;2023-04-24T00:27:18;0.30;;;0.30;;
19179;SDS011;9722;48.754;8.868;2023-04-24T00:30:39;0.87;;;0.50;;
19179;SDS011;9722;48.754;8.868;2023-04-24T00:34:00;0.80;;;0.40;;
19179;SDS011;9722;48.754;8.868;2023-04-24T00:37:22;0.67;;;0.50;;
19179;SDS011;9722;48.754;8.868;2023-04-24T00:40:42;0.57;;;0.40;;
19179;SDS011;9722;48.754;8.868;2023-04-24T00:44:03;0.37;;;0.37;;
19179;SDS011;9722;48.754;8.868;2023-04-24T00:47:23;1.07;;;0.30;;
19179;SDS011;9722;48.754;8.868;2023-04-24T00:50:45;1.80;;;0.57;;
19179;SDS011;9722;48.754;8.868;2023-04-24T00:54:06;0.80;;;0.47;;
19179;SDS011;9722;48.754;8.868;2023-04-24T00:57:26;0.63;;;0.50;;
19179;SDS011;9722;48.754;8.868;2023-04-24T01:00:47;0.80;;;0.40;;
19179;SDS011;9722;48.754;8.868;2023-04-24T01:04:11;0.53;;;0.50;;
19179;SDS011;9722;48.754;8.868;2023-04-24T01:07:32;0.90;;;0.47;;
19179;SDS011;9722;48.754;8.868;2023-04-24T01:10:52;1.87;;;0.40;;
19179;SDS011;9722;48.754;8.868;2023-04-24T01:14:13;0.70;;;0.40;;
19179;SDS011;9722;48.754;8.868;2023-04-24T01:17:34;1.17;;;0.70;;
19179;SDS011;9722;48.754;8.868;2023-04-24T01:20:58;0.70;;;0.50;;
19179;SDS011;9722;48.754;8.868;2023-04-24T01:24:23;0.73;;;0.40;;
19179;SDS011;9722;48.754;8.868;2023-04-24T01:27:44;0.57;;;0.57;;
19179;SDS011;9722;48.754;8.868;2023-04-24T01:31:04;0.30;;;0.30;;
19179;SDS011;9722;48.754;8.868;2023-04-24T01:34:25;0.40;;;0.33;;
19179;SDS011;9722;48.754;8.868;2023-04-24T01:37:46;1.03;;;0.40;;
19179;SDS011;9722;48.754;8.868;2023-04-24T01:41:07;1.07;;;0.50;;
19179;SDS011;9722;48.754;8.868;2023-04-24T01:44:27;0.40;;;0.40;;
19179;SDS011;9722;48.754;8.868;2023-04-24T01:47:48;0.50;;;0.50;;
19179;SDS011;9722;48.754;8.868;2023-04-24T01:51:10;1.73;;;0.60;;
19179;SDS011;9722;48.754;8.868;2023-04-24T01:54:30;0.40;;;0.30;;
19179;SDS011;9722;48.754;8.868;2023-04-24T01:57:52;0.37;;;0.37;;
19179;SDS011;9722;48.754;8.868;2023-04-24T02:01:17;2.00;;;0.57;;
19179;SDS011;9722;48.754;8.868;2023-04-24T02:04:43;1.10;;;0.60;;
19179;SDS011;9722;48.754;8.868;2023-04-24T02:08:03;0.37;;;0.30;;
19179;SDS011;9722;48.754;8.868;2023-04-24T02:11:24;0.60;;;0.47;;
19179;SDS011;9722;48.754;8.868;2023-04-24T02:14:45;1.80;;;0.43;;
19179;SDS011;9722;48.754;8.868;2023-04-24T02:18:05;1.17;;;0.60;;
19179;SDS011;9722;48.754;8.868;2023-04-24T02:21:26;0.50;;;0.50;;
19179;SDS011;9722;48.754;8.868;2023-04-24T02:24:47;0.73;;;0.50;;
19179;SDS011;9722;48.754;8.868;2023-04-24T02:28:08;0.73;;;0.47;;
19179;SDS011;9722;48.754;8.868;2023-04-24T02:31:28;0.70;;;0.50;;
19179;SDS011;9722;48.754;8.868;2023-04-24T02:34:49;0.40;;;0.40;;
19179;SDS011;9722;48.754;8.868;2023-04-24T02:38:09;0.70;;;0.60;;
19179;SDS011;9722;48.754;8.868;2023-04-24T02:41:30;1.40;;;0.77;;
19179;SDS011;9722;48.754;8.868;2023-04-24T02:44:52;0.50;;;0.50;;
19179;SDS011;9722;48.754;8.868;2023-04-24T02:48:13;0.40;;;0.40;;
19179;SDS011;9722;48.754;8.868;2023-04-24T02:51:33;0.93;;;0.60;;
19179;SDS011;9722;48.754;8.868;2023-04-24T02:54:54;1.33;;;0.60;;
19179;SDS011;9722;48.754;8.868;2023-04-24T02:58:14;0.53;;;0.50;;
19179;SDS011;9722;48.754;8.868;2023-04-24T03:01:35;0.47;;;0.47;;
19179;SDS011;9722;48.754;8.868;2023-04-24T03:04:56;1.40;;;0.60;;
19179;SDS011;9722;48.754;8.868;2023-04-24T03:08:17;0.60;;;0.60;;
19179;SDS011;9722;48.754;8.868;2023-04-24T03:11:37;0.63;;;0.57;;
19179;SDS011;9722;48.754;8.868;2023-04-24T03:14:58;0.77;;;0.63;;
19179;SDS011;9722;48.754;8.868;2023-04-24T03:18:18;0.60;;;0.60;;
19179;SDS011;9722;48.754;8.868;2023-04-24T03:21:39;0.93;;;0.50;;
19179;SDS011;9722;48.754;8.868;2023-04-24T03:25:00;1.33;;;0.60;;
19179;SDS011;9722;48.754;8.868;2023-04-24T03:28:21;0.40;;;0.40;;
19179;SDS011;9722;48.754;8.868;2023-04-24T03:31:42;1.17;;;0.40;;
19179;SDS011;9722;48.754;8.868;2023-04-24T03:35:02;0.60;;;0.60;;
19179;SDS011;9722;48.754;8.868;2023-04-24T03:38:23;0.73;;;0.50;;
19179;SDS011;9722;48.754;8.868;2023-04-24T03:41:43;0.60;;;0.60;;
19179;SDS011;9722;48.754;8.868;2023-04-24T03:45:04;0.60;;;0.60;;
19179;SDS011;9722;48.754;8.868;2023-04-24T03:48:25;1.17;;;0.50;;
19179;SDS011;9722;48.754;8.868;2023-04-24T03:51:46;1.10;;;0.70;;
19179;SDS011;9722;48.754;8.868;2023-04-24T03:55:07;0.50;;;0.50;;
19179;SDS011;9722;48.754;8.868;2023-04-24T03:58:27;0.93;;;0.53;;
19179;SDS011;9722;48.754;8.868;2023-04-24T04:01:48;1.30;;;0.53;;
19179;SDS011;9722;48.754;8.868;2023-04-24T04:05:08;1.27;;;0.70;;
19179;SDS011;9722;48.754;8.868;2023-04-24T04:08:29;1.20;;;0.80;;
19179;SDS011;9722;48.754;8.868;2023-04-24T04:11:50;1.30;;;0.57;;
19179;SDS011;9722;48.754;8.868;2023-04-24T04:15:10;0.63;;;0.60;;
19179;SDS011;9722;48.754;8.868;2023-04-24T04:18:31;1.97;;;1.00;;
19179;SDS011;9722;48.754;8.868;2023-04-24T04:21:52;0.70;;;0.70;;
19179;SDS011;9722;48.754;8.868;2023-04-24T04:25:13;0.60;;;0.60;;
19179;SDS011;9722;48.754;8.868;2023-04-24T04:28:33;0.70;;;0.60;;
19179;SDS011;9722;48.754;8.868;2023-04-24T04:31:54;1.30;;;0.70;;
19179;SDS011;9722;48.754;8.868;2023-04-24T04:35:15;0.80;;;0.80;;
19179;SDS011;9722;48.754;8.868;2023-04-24T04:38:35;1.03;;;0.70;;
19179;SDS011;9722;48.754;8.868;2023-04-24T04:41:57;0.67;;;0.67;;
19179;SDS011;9722;48.754;8.868;2023-04-24T04:45:18;0.73;;;0.60;;
19179;SDS011;9722;48.754;8.868;2023-04-24T04:48:40;0.67;;;0.67;;
19179;SDS011;9722;48.754;8.868;2023-04-24T04:52:00;0.63;;;0.63;;
19179;SDS011;9722;48.754;8.868;2023-04-24T04:55:21;1.83;;;0.83;;
19179;SDS011;9722;48.754;8.868;2023-04-24T04:58:42;0.93;;;0.80;;
19179;SDS011;9722;48.754;8.868;2023-04-24T05:02:02;0.83;;;0.83;;
19179;SDS011;9722;48.754;8.868;2023-04-24T05:05:23;1.50;;;0.73;;
19179;SDS011;9722;48.754;8.868;2023-04-24T05:08:43;0.80;;;0.80;;
19179;SDS011;9722;48.754;8.868;2023-04-24T05:12:04;0.73;;;0.73;;
19179;SDS011;9722;48.754;8.868;2023-04-24T05:15:25;1.67;;;0.50;;
19179;SDS011;9722;48.754;8.868;2023-04-24T05:18:45;0.77;;;0.77;;
19179;SDS011;9722;48.754;8.868;2023-04-24T05:22:06;0.63;;;0.63;;
19179;SDS011;9722;48.754;8.868;2023-04-24T05:25:26;1.87;;;0.90;;
19179;SDS011;9722;48.754;8.868;2023-04-24T05:28:47;1.37;;;0.90;;
19179;SDS011;9722;48.754;8.868;2023-04-24T05:32:07;0.90;;;0.90;;
19179;SDS011;9722;48.754;8.868;2023-04-24T05:35:28;1.20;;;1.10;;
19179;SDS011;9722;48.754;8.868;2023-04-24T05:38:48;1.50;;;1.40;;
19179;SDS011;9722;48.754;8.868;2023-04-24T05:42:09;1.67;;;1.57;;
19179;SDS011;9722;48.754;8.868;2023-04-24T05:45:30;1.63;;;1.40;;
19179;SDS011;9722;48.754;8.868;2023-04-24T05:48:50;2.37;;;2.17;;
19179;SDS011;9722;48.754;8.868;2023-04-24T05:52:11;2.27;;;1.50;;
19179;SDS011;9722;48.754;8.868;2023-04-24T05:55:31;1.20;;;1.20;;
19179;SDS011;9722;48.754;8.868;2023-04-24T05:58:52;1.53;;;1.30;;
19179;SDS011;9722;48.754;8.868;2023-04-24T06:02:12;1.87;;;1.57;;
19179;SDS011;9722;48.754;8.868;2023-04-24T06:05:33;2.60;;;2.50;;
19179;SDS011;9722;48.754;8.868;2023-04-24T06:08:54;1.53;;;1.30;;
19179;SDS011;9722;48.754;8.868;2023-04-24T06:12:15;2.30;;;2.10;;
19179;SDS011;9722;48.754;8.868;2023-04-24T06:15:36;1.43;;;1.40;;
19179;SDS011;9722;48.754;8.868;2023-04-24T06:18:56;1.00;;;1.00;;
19179;SDS011;9722;48.754;8.868;2023-04-24T06:22:17;0.80;;;0.80;;
19179;SDS011;9722;48.754;8.868;2023-04-24T06:25:37;2.43;;;1.37;;
19179;SDS011;9722;48.754;8.868;2023-04-24T06:28:58;0.90;;;0.90;;
19179;SDS011;9722;48.754;8.868;2023-04-24T06:32:23;0.93;;;0.93;;
19179;SDS011;9722;48.754;8.868;2023-04-24T06:35:44;1.20;;;1.10;;
19179;SDS011;9722;48.754;8.868;2023-04-24T06:39:04;1.50;;;1.07;;
19179;SDS011;9722;48.754;8.868;2023-04-24T06:42:25;1.00;;;0.90;;
19179;SDS011;9722;48.754;8.868;2023-04-24T06:45:45;1.60;;;1.00;;
19179;SDS011;9722;48.754;8.868;2023-04-24T06:49:07;1.07;;;0.80;;
19179;SDS011;9722;48.754;8.868;2023-04-24T06:52:27;0.90;;;0.90;;
19179;SDS011;9722;48.754;8.868;2023-04-24T06:55:48;0.70;;;0.70;;
19179;SDS011;9722;48.754;8.868;2023-04-24T06:59:08;1.03;;;0.93;;
19179;SDS011;9722;48.754;8.868;2023-04-24T07:02:29;1.27;;;0.80;;
19179;SDS011;9722;48.754;8.868;2023-04-24T07:05:49;0.87;;;0.60;;
19179;SDS011;9722;48.754;8.868;2023-04-24T07:09:11;1.10;;;1.00;;
19179;SDS011;9722;48.754;8.868;2023-04-24T07:12:33;2.63;;;1.20;;
19179;SDS011;9722;48.754;8.868;2023-04-24T07:15:54;1.03;;;0.70;;
19179;SDS011;9722;48.754;8.868;2023-04-24T07:19:16;0.70;;;0.70;;
19179;SDS011;9722;48.754;8.868;2023-04-24T07:22:39;0.93;;;0.93;;
19179;SDS011;9722;48.754;8.868;2023-04-24T07:26:00;1.47;;;0.80;;
19179;SDS011;9722;48.754;8.868;2023-04-24T07:29:20;0.70;;;0.70;;
19179;SDS011;9722;48.754;8.868;2023-04-24T07:32:41;0.90;;;0.60;;
19179;SDS011;9722;48.754;8.868;2023-04-24T07:36:03;0.80;;;0.80;;
19179;SDS011;9722;48.754;8.868;2023-04-24T07:39:24;0.80;;;0.70;;
19179;SDS011;9722;48.754;8.868;2023-04-24T07:42:44;2.23;;;0.80;;
19179;SDS011;9722;48.754;8.868;2023-04-24T07:46:05;1.00;;;1.00;;
19179;SDS011;9722;48.754;8.868;2023-04-24T07:49:26;0.80;;;0.80;;
19179;SDS011;9722;48.754;8.868;2023-04-24T07:52:47;1.37;;;0.73;;
19179;SDS011;9722;48.754;8.868;2023-04-24T07:56:08;2.10;;;0.93;;
19179;SDS011;9722;48.754;8.868;2023-04-24T07:59:29;0.70;;;0.70;;
19179;SDS011;9722;48.754;8.868;2023-04-24T08:02:49;0.70;;;0.70;;
19179;SDS011;9722;48.754;8.868;2023-04-24T08:06:10;0.73;;;0.70;;
19179;SDS011;9722;48.754;8.868;2023-04-24T08:09:30;1.93;;;1.00;;
19179;SDS011;9722;48.754;8.868;2023-04-24T08:12:51;1.13;;;0.90;;
19179;SDS011;9722;48.754;8.868;2023-04-24T08:16:11;0.90;;;0.90;;
19179;SDS011;9722;48.754;8.868;2023-04-24T08:19:32;1.40;;;0.80;;
19179;SDS011;9722;48.754;8.868;2023-04-24T08:22:52;0.73;;;0.73;;
19179;SDS011;9722;48.754;8.868;2023-04-24T08:26:14;0.90;;;0.77;;
19179;SDS011;9722;48.754;8.868;2023-04-24T08:29:35;1.20;;;0.80;;
19179;SDS011;9722;48.754;8.868;2023-04-24T08:32:56;0.87;;;0.87;;
19179;SDS011;9722;48.754;8.868;2023-04-24T08:36:16;0.70;;;0.70;;
19179;SDS011;9722;48.754;8.868;2023-04-24T08:39:37;0.70;;;0.70;;
19179;SDS011;9722;48.754;8.868;2023-04-24T08:42:57;1.60;;;1.27;;
19179;SDS011;9722;48.754;8.868;2023-04-24T08:46:20;1.20;;;1.10;;
19179;SDS011;9722;48.754;8.868;2023-04-24T08:49:41;0.70;;;0.70;;
19179;SDS011;9722;48.754;8.868;2023-04-24T08:53:03;1.50;;;1.03;;
19179;SDS011;9722;48.754;8.868;2023-04-24T08:56:24;1.30;;;1.00;;
19179;SDS011;9722;48.754;8.868;2023-04-24T08:59:45;0.80;;;0.80;;
19179;SDS011;9722;48.754;8.868;2023-04-24T09:03:07;0.70;;;0.70;;
19179;SDS011;9722;48.754;8.868;2023-04-24T09:06:27;2.13;;;1.27;;
19179;SDS011;9722;48.754;8.868;2023-04-24T09:09:48;0.77;;;0.70;;
19179;SDS011;9722;48.754;8.868;2023-04-24T09:13:11;1.47;;;0.90;;
19179;SDS011;9722;48.754;8.868;2023-04-24T09:16:31;0.90;;;0.90;;
19179;SDS011;9722;48.754;8.868;2023-04-24T09:19:53;0.83;;;0.77;;
19179;SDS011;9722;48.754;8.868;2023-04-24T09:23:17;1.27;;;0.90;;
19179;SDS011;9722;48.754;8.868;2023-04-24T09:26:37;1.13;;;0.70;;
19179;SDS011;9722;48.754;8.868;2023-04-24T09:29:58;0.70;;;0.70;;
19179;SDS011;9722;48.754;8.868;2023-04-24T09:33:20;1.93;;;1.10;;
19179;SDS011;9722;48.754;8.868;2023-04-24T09:36:42;0.97;;;0.70;;
19179;SDS011;9722;48.754;8.868;2023-04-24T09:43:39;0.97;;;0.80;;
19179;SDS011;9722;48.754;8.868;2023-04-24T09:47:00;0.93;;;0.80;;
19179;SDS011;9722;48.754;8.868;2023-04-24T09:50:20;0.70;;;0.70;;
19179;SDS011;9722;48.754;8.868;2023-04-24T09:53:45;1.07;;;0.80;;
19179;SDS011;9722;48.754;8.868;2023-04-24T09:57:07;2.83;;;1.13;;
19179;SDS011;9722;48.754;8.868;2023-04-24T10:00:29;1.07;;;0.70;;
19179;SDS011;9722;48.754;8.868;2023-04-24T10:03:51;3.20;;;0.80;;
19179;SDS011;9722;48.754;8.868;2023-04-24T10:07:12;1.23;;;0.70;;
19179;SDS011;9722;48.754;8.868;2023-04-24T10:10:37;1.43;;;1.30;;
19179;SDS011;9722;48.754;8.868;2023-04-24T10:13:59;1.87;;;1.60;;
19179;SDS011;9722;48.754;8.868;2023-04-24T10:17:20;1.20;;;1.10;;
19179;SDS011;9722;48.754;8.868;2023-04-24T10:20:41;2.23;;;1.30;;
19179;SDS011;9722;48.754;8.868;2023-04-24T10:24:02;1.47;;;1.07;;
19179;SDS011;9722;48.754;8.868;2023-04-24T10:27:25;1.63;;;1.40;;
19179;SDS011;9722;48.754;8.868;2023-04-24T10:30:47;1.40;;;1.00;;
19179;SDS011;9722;48.754;8.868;2023-04-24T10:34:08;1.83;;;1.10;;
19179;SDS011;9722;48.754;8.868;2023-04-24T10:37:29;1.20;;;0.97;;
19179;SDS011;9722;48.754;8.868;2023-04-24T10:40:57;1.37;;;0.70;;
19179;SDS011;9722;48.754;8.868;2023-04-24T10:44:36;0.73;;;0.73;;
19179;SDS011;9722;48.754;8.868;2023-04-24T10:55:09;0.97;;;0.87;;
19179;SDS011;9722;48.754;8.868;2023-04-24T10:58:37;1.97;;;1.37;;
19179;SDS011;9722;48.754;8.868;2023-04-24T11:02:04;1.00;;;1.00;;
19179;SDS011;9722;48.754;8.868;2023-04-24T11:05:48;1.27;;;1.17;;
19179;SDS011;9722;48.754;8.868;2023-04-24T11:09:12;1.07;;;0.97;;
19179;SDS011;9722;48.754;8.868;2023-04-24T11:12:36;0.80;;;0.80;;
19179;SDS011;9722;48.754;8.868;2023-04-24T11:16:20;0.87;;;0.60;;
19179;SDS011;9722;48.754;8.868;2023-04-24T11:19:43;1.10;;;0.57;;
19179;SDS011;9722;48.754;8.868;2023-04-24T11:23:12;4.73;;;1.07;;
19179;SDS011;9722;48.754;8.868;2023-04-24T11:26:33;1.00;;;0.90;;
19179;SDS011;9722;48.754;8.868;2023-04-24T11:29:59;0.83;;;0.80;;
19179;SDS011;9722;48.754;8.868;2023-04-24T11:33:21;0.73;;;0.70;;
19179;SDS011;9722;48.754;8.868;2023-04-24T11:36:47;1.20;;;0.80;;
19179;SDS011;9722;48.754;8.868;2023-04-24T11:40:09;0.83;;;0.83;;
19179;SDS011;9722;48.754;8.868;2023-04-24T11:43:31;0.70;;;0.70;;
19179;SDS011;9722;48.754;8.868;2023-04-24T11:46:52;2.57;;;0.90;;
19179;SDS011;9722;48.754;8.868;2023-04-24T11:50:20;0.90;;;0.90;;
19179;SDS011;9722;48.754;8.868;2023-04-24T11:53:42;0.70;;;0.70;;
19179;SDS011;9722;48.754;8.868;2023-04-24T11:57:06;0.70;;;0.70;;
19179;SDS011;9722;48.754;8.868;2023-04-24T12:00:31;1.93;;;0.80;;
19179;SDS011;9722;48.754;8.868;2023-04-24T12:03:59;0.97;;;0.93;;
19179;SDS011;9722;48.754;8.868;2023-04-24T12:07:20;1.10;;;1.00;;
19179;SDS011;9722;48.754;8.868;2023-04-24T12:10:41;1.07;;;0.87;;
19179;SDS011;9722;48.754;8.868;2023-04-24T12:14:11;1.67;;;0.70;;
19179;SDS011;9722;48.754;8.868;2023-04-24T12:17:32;2.50;;;0.80;;
19179;SDS011;9722;48.754;8.868;2023-04-24T12:20:53;4.10;;;1.10;;
19179;SDS011;9722;48.754;8.868;2023-04-24T12:24:14;0.73;;;0.73;;
19179;SDS011;9722;48.754;8.868;2023-04-24T12:27:34;0.70;;;0.70;;
19179;SDS011;9722;48.754;8.868;2023-04-24T12:30:55;0.80;;;0.80;;
19179;SDS011;9722;48.754;8.868;2023-04-24T12:34:22;0.80;;;0.77;;
19179;SDS011;9722;48.754;8.868;2023-04-24T12:37:46;0.90;;;0.90;;
19179;SDS011;9722;48.754;8.868;2023-04-24T12:41:07;1.10;;;1.00;;
19179;SDS011;9722;48.754;8.868;2023-04-24T12:44:32;1.00;;;0.90;;
19179;SDS011;9722;48.754;8.868;2023-04-24T12:47:54;0.80;;;0.80;;
19179;SDS011;9722;48.754;8.868;2023-04-24T12:51:15;1.20;;;0.83;;
19179;SDS011;9722;48.754;8.868;2023-04-24T12:54:35;0.80;;;0.80;;
19179;SDS011;9722;48.754;8.868;2023-04-24T12:57:56;0.90;;;0.90;;
19179;SDS011;9722;48.754;8.868;2023-04-24T13:01:16;0.83;;;0.83;;
19179;SDS011;9722;48.754;8.868;2023-04-24T13:04:37;1.37;;;1.27;;
19179;SDS011;9722;48.754;8.868;2023-04-24T13:07:57;1.87;;;1.20;;
19179;SDS011;9722;48.754;8.868;2023-04-24T13:11:18;0.70;;;0.70;;
19179;SDS011;9722;48.754;8.868;2023-04-24T13:14:38;1.27;;;1.17;;
19179;SDS011;9722;48.754;8.868;2023-04-24T13:17:59;1.30;;;1.10;;
19179;SDS011;9722;48.754;8.868;2023-04-24T13:21:19;1.03;;;0.90;;
19179;SDS011;9722;48.754;8.868;2023-04-24T13:24:40;0.80;;;0.70;;
19179;SDS011;9722;48.754;8.868;2023-04-24T13:28:01;0.63;;;0.50;;
19179;SDS011;9722;48.754;8.868;2023-04-24T13:31:21;0.67;;;0.67;;
19179;SDS011;9722;48.754;8.868;2023-04-24T13:34:42;0.90;;;0.90;;
19179;SDS011;9722;48.754;8.868;2023-04-24T13:38:03;1.00;;;0.87;;
19179;SDS011;9722;48.754;8.868;2023-04-24T13:41:25;1.10;;;1.10;;
19179;SDS011;9722;48.754;8.868;2023-04-24T13:44:46;1.80;;;1.70;;
19179;SDS011;9722;48.754;8.868;2023-04-24T13:48:07;1.07;;;0.90;;
19179;SDS011;9722;48.754;8.868;2023-04-24T13:51:29;0.73;;;0.70;;
19179;SDS011;9722;48.754;8.868;2023-04-24T13:54:50;1.90;;;1.20;;
19179;SDS011;9722;48.754;8.868;2023-04-24T13:58:10;1.43;;;1.00;;
19179;SDS011;9722;48.754;8.868;2023-04-24T14:01:31;0.87;;;0.80;;
19179;SDS011;9722;48.754;8.868;2023-04-24T14:04:51;0.83;;;0.77;;
19179;SDS011;9722;48.754;8.868;2023-04-24T14:08:12;1.17;;;0.83;;
19179;SDS011;9722;48.754;8.868;2023-04-24T14:11:33;1.13;;;0.77;;
19179;SDS011;9722;48.754;8.868;2023-04-24T14:14:53;1.10;;;0.73;;
19179;SDS011;9722;48.754;8.868;2023-04-24T14:18:14;0.70;;;0.70;;
19179;SDS011;9722;48.754;8.868;2023-04-24T14:21:34;1.77;;;0.80;;
19179;SDS011;9722;48.754;8.868;2023-04-24T14:24:55;1.17;;;1.00;;
19179;SDS011;9722;48.754;8.868;2023-04-24T14:28:16;1.20;;;1.10;;
19179;SDS011;9722;48.754;8.868;2023-04-24T14:31:37;1.27;;;1.07;;
19179;SDS011;9722;48.754;8.868;2023-04-24T14:34:58;1.20;;;1.10;;
19179;SDS011;9722;48.754;8.868;2023-04-24T14:38:18;1.20;;;1.10;;
19179;SDS011;9722;48.754;8.868;2023-04-24T14:41:39;1.17;;;0.90;;
19179;SDS011;9722;48.754;8.868;2023-04-24T14:45:00;1.40;;;1.30;;
19179;SDS011;9722;48.754;8.868;2023-04-24T14:48:21;1.07;;;1.03;;
19179;SDS011;9722;48.754;8.868;2023-04-24T14:51:41;1.27;;;1.17;;
19179;SDS011;9722;48.754;8.868;2023-04-24T14:55:02;1.17;;;0.97;;
19179;SDS011;9722;48.754;8.868;2023-04-24T14:58:23;1.07;;;1.00;;
19179;SDS011;9722;48.754;8.868;2023-04-24T15:01:43;1.63;;;1.10;;
19179;SDS011;9722;48.754;8.868;2023-04-24T15:05:04;1.10;;;1.00;;
19179;SDS011;9722;48.754;8.868;2023-04-24T15:08:26;1.00;;;1.00;;
19179;SDS011;9722;48.754;8.868;2023-04-24T15:11:46;1.20;;;1.10;;
19179;SDS011;9722;48.754;8.868;2023-04-24T15:15:07;1.00;;;0.90;;
19179;SDS011;9722;48.754;8.868;2023-04-24T15:18:28;0.97;;;0.90;;
19179;SDS011;9722;48.754;8.868;2023-04-24T15:21:49;1.30;;;1.20;;
19179;SDS011;9722;48.754;8.868;2023-04-24T15:25:09;1.57;;;1.50;;
19179;SDS011;9722;48.754;8.868;2023-04-24T15:28:30;1.13;;;1.13;;
19179;SDS011;9722;48.754;8.868;2023-04-24T15:31:50;1.20;;;1.10;;
19179;SDS011;9722;48.754;8.868;2023-04-24T15:35:11;1.20;;;1.10;;
19179;SDS011;9722;48.754;8.868;2023-04-24T15:38:32;1.30;;;1.20;;
19179;SDS011;9722;48.754;8.868;2023-04-24T15:41:52;1.40;;;1.30;;
19179;SDS011;9722;48.754;8.868;2023-04-24T15:45:13;1.63;;;1.00;;
19179;SDS011;9722;48.754;8.868;2023-04-24T15:48:33;1.57;;;1.47;;
19179;SDS011;9722;48.754;8.868;2023-04-24T15:51:54;1.20;;;1.10;;
19179;SDS011;9722;48.754;8.868;2023-04-24T15:55:15;4.37;;;1.40;;
19179;SDS011;9722;48.754;8.868;2023-04-24T15:58:35;1.57;;;1.47;;
19179;SDS011;9722;48.754;8.868;2023-04-24T16:01:56;1.87;;;1.23;;
19179;SDS011;9722;48.754;8.868;2023-04-24T16:05:16;1.70;;;1.40;;
19179;SDS011;9722;48.754;8.868;2023-04-24T16:08:38;1.30;;;1.20;;
19179;SDS011;9722;48.754;8.868;2023-04-24T16:11:59;1.07;;;0.97;;
19179;SDS011;9722;48.754;8.868;2023-04-24T16:15:20;1.17;;;1.07;;
19179;SDS011;9722;48.754;8.868;2023-04-24T16:18:40;2.20;;;1.50;;
19179;SDS011;9722;48.754;8.868;2023-04-24T16:22:01;1.67;;;1.50;;
19179;SDS011;9722;48.754;8.868;2023-04-24T16:25:22;1.13;;;1.03;;
19179;SDS011;9722;48.754;8.868;2023-04-24T16:28:43;1.50;;;1.00;;
19179;SDS011;9722;48.754;8.868;2023-04-24T16:32:04;0.90;;;0.90;;
19179;SDS011;9722;48.754;8.868;2023-04-24T16:35:24;0.70;;;0.70;;
19179;SDS011;9722;48.754;8.868;2023-04-24T16:38:45;0.87;;;0.63;;
19179;SDS011;9722;48.754;8.868;2023-04-24T16:42:05;0.93;;;0.70;;
19179;SDS011;9722;48.754;8.868;2023-04-24T16:45:26;1.40;;;0.70;;
19179;SDS011;9722;48.754;8.868;2023-04-24T16:48:46;0.80;;;0.80;;
19179;SDS011;9722;48.754;8.868;2023-04-24T16:52:07;1.93;;;1.00;;
19179;SDS011;9722;48.754;8.868;2023-04-24T16:55:28;1.00;;;0.90;;
19179;SDS011;9722;48.754;8.868;2023-04-24T16:58:48;1.67;;;1.30;;
19179;SDS011;9722;48.754;8.868;2023-04-24T17:02:09;1.20;;;1.10;;
19179;SDS011;9722;48.754;8.868;2023-04-24T17:05:29;0.87;;;0.87;;
19179;SDS011;9722;48.754;8.868;2023-04-24T17:08:51;0.80;;;0.80;;
19179;SDS011;9722;48.754;8.868;2023-04-24T17:12:12;0.80;;;0.70;;
19179;SDS011;9722;48.754;8.868;2023-04-24T17:15:32;1.00;;;0.70;;
19179;SDS011;9722;48.754;8.868;2023-04-24T17:18:54;0.80;;;0.80;;
19179;SDS011;9722;48.754;8.868;2023-04-24T17:22:14;0.90;;;0.73;;
19179;SDS011;9722;48.754;8.868;2023-04-24T17:25:35;1.10;;;1.00;;
19179;SDS011;9722;48.754;8.868;2023-04-24T17:28:55;1.37;;;1.13;;
19179;SDS011;9722;48.754;8.868;2023-04-24T17:32:16;1.10;;;1.00;;
19179;SDS011;9722;48.754;8.868;2023-04-24T17:35:36;2.77;;;1.00;;
19179;SDS011;9722;48.754;8.868;2023-04-24T17:38:57;1.50;;;0.93;;
19179;SDS011;9722;48.754;8.868;2023-04-24T17:42:17;1.40;;;1.10;;
19179;SDS011;9722;48.754;8.868;2023-04-24T17:45:38;1.60;;;1.20;;
19179;SDS011;9722;48.754;8.868;2023-04-24T17:48:59;1.67;;;1.17;;
19179;SDS011;9722;48.754;8.868;2023-04-24T17:52:19;1.50;;;0.97;;
19179;SDS011;9722;48.754;8.868;2023-04-24T17:55:40;2.77;;;1.27;;
19179;SDS011;9722;48.754;8.868;2023-04-24T17:59:05;1.10;;;1.10;;
19179;SDS011;9722;48.754;8.868;2023-04-24T18:02:25;0.90;;;0.90;;
19179;SDS011;9722;48.754;8.868;2023-04-24T18:05:46;1.20;;;1.10;;
19179;SDS011;9722;48.754;8.868;2023-04-24T18:09:06;1.37;;;1.27;;
19179;SDS011;9722;48.754;8.868;2023-04-24T18:12:27;1.87;;;1.40;;
19179;SDS011;9722;48.754;8.868;2023-04-24T18:15:47;1.37;;;1.27;;
19179;SDS011;9722;48.754;8.868;2023-04-24T18:19:08;2.07;;;1.37;;
19179;SDS011;9722;48.754;8.868;2023-04-24T18:22:28;1.40;;;1.30;;
19179;SDS011;9722;48.754;8.868;2023-04-24T18:25:49;2.17;;;1.80;;
19179;SDS011;9722;48.754;8.868;2023-04-24T18:29:09;2.10;;;1.40;;
19179;SDS011;9722;48.754;8.868;2023-04-24T18:32:30;1.50;;;1.40;;
19179;SDS011;9722;48.754;8.868;2023-04-24T18:35:50;1.70;;;1.60;;
19179;SDS011;9722;48.754;8.868;2023-04-24T18:39:11;1.10;;;1.00;;
19179;SDS011;9722;48.754;8.868;2023-04-24T18:42:32;2.73;;;1.50;;
19179;SDS011;9722;48.754;8.868;2023-04-24T18:45:53;1.10;;;1.10;;
19179;SDS011;9722;48.754;8.868;2023-04-24T18:49:13;1.20;;;1.10;;
19179;SDS011;9722;48.754;8.868;2023-04-24T18:52:34;1.50;;;1.40;;
19179;SDS011;9722;48.754;8.868;2023-04-24T18:55:55;1.63;;;1.20;;
19179;SDS011;9722;48.754;8.868;2023-04-24T18:59:16;1.07;;;1.03;;
19179;SDS011;9722;48.754;8.868;2023-04-24T19:02:37;1.57;;;1.07;;
19179;SDS011;9722;48.754;8.868;2023-04-24T19:05:57;3.93;;;3.40;;
19179;SDS011;9722;48.754;8.868;2023-04-24T19:09:18;5.40;;;4.90;;
19179;SDS011;9722;48.754;8.868;2023-04-24T19:12:38;5.23;;;3.67;;
19179;SDS011;9722;48.754;8.868;2023-04-24T19:15:59;5.37;;;4.90;;
19179;SDS011;9722;48.754;8.868;2023-04-24T19:19:19;6.53;;;6.07;;
19179;SDS011;9722;48.754;8.868;2023-04-24T19:22:42;3.47;;;3.17;;
19179;SDS011;9722;48.754;8.868;2023-04-24T19:26:03;1.97;;;1.87;;
19179;SDS011;9722;48.754;8.868;2023-04-24T19:29:23;1.87;;;1.60;;
19179;SDS011;9722;48.754;8.868;2023-04-24T19:32:44;1.50;;;1.40;;
19179;SDS011;9722;48.754;8.868;2023-04-24T19:36:04;3.20;;;2.90;;
19179;SDS011;9722;48.754;8.868;2023-04-24T19:39:25;1.97;;;1.87;;
19179;SDS011;9722;48.754;8.868;2023-04-24T19:42:46;4.13;;;1.90;;
19179;SDS011;9722;48.754;8.868;2023-04-24T19:46:08;1.87;;;1.50;;
19179;SDS011;9722;48.754;8.868;2023-04-24T19:49:29;1.40;;;1.30;;
19179;SDS011;9722;48.754;8.868;2023-04-24T19:52:49;3.20;;;1.50;;
19179;SDS011;9722;48.754;8.868;2023-04-24T19:56:10;1.30;;;1.20;;
19179;SDS011;9722;48.754;8.868;2023-04-24T19:59:30;1.43;;;1.20;;
19179;SDS011;9722;48.754;8.868;2023-04-24T20:02:51;2.00;;;1.60;;
19179;SDS011;9722;48.754;8.868;2023-04-24T20:06:11;3.20;;;2.20;;
19179;SDS011;9722;48.754;8.868;2023-04-24T20:09:32;6.67;;;4.90;;
19179;SDS011;9722;48.754;8.868;2023-04-24T20:12:53;5.60;;;4.13;;
19179;SDS011;9722;48.754;8.868;2023-04-24T20:16:14;3.70;;;2.20;;
19179;SDS011;9722;48.754;8.868;2023-04-24T20:19:34;4.00;;;3.40;;
19179;SDS011;9722;48.754;8.868;2023-04-24T20:22:55;7.37;;;4.00;;
19179;SDS011;9722;48.754;8.868;2023-04-24T20:26:15;6.03;;;3.93;;
19179;SDS011;9722;48.754;8.868;2023-04-24T20:29:36;8.77;;;4.90;;
19179;SDS011;9722;48.754;8.868;2023-04-24T20:32:56;6.97;;;5.00;;
19179;SDS011;9722;48.754;8.868;2023-04-24T20:36:17;3.93;;;2.93;;
19179;SDS011;9722;48.754;8.868;2023-04-24T20:39:38;3.67;;;3.30;;